sensor_id;sensor_type;location;lat;lon;timestamp;pressure;altitude;pressure_sealevel;temperature;humidity
2268;BME280;11052;43.338;25.502;2023-04-27T00:01:59;100327.63;;;10.49;100.00
2268;BME280;11052;43.338;25.502;2023-04-27T00:04:26;100332.00;;;10.47;100.00
2268;BME280;11052;43.338;25.502;2023-04-27T00:06:53;100328.59;;;10.45;100.00
2268;BME280;11052;43.338;25.502;2023-04-27T00:09:20;100332.88;;;10.46;100.00
2268;BME280;11052;43.338;25.502;2023-04-27T00:11:49;100334.94;;;10.37;100.00
2268;BME280;11052;43.338;25.502;2023-04-27T00:14:16;100340.38;;;10.28;100.00
2268;BME280;11052;43.338;25.502;2023-04-27T00:16:45;100343.97;;;10.22;100.00
2268;BME280;11052;43.338;25.502;2023-04-27T00:19:12;100338.50;;;10.33;100.00
2268;BME280;11052;43.338;25.502;2023-04-27T00:21:39;100345.38;;;10.34;100.00
2268;BME280;11052;43.338;25.502;2023-04-27T00:24:07;100338.59;;;10.30;100.00
2268;BME280;11052;43.338;25.502;2023-04-27T00:26:34;100342.97;;;10.28;100.00
2268;BME280;11052;43.338;25.502;2023-04-27T00:29:03;100342.50;;;10.12;100.00
2268;BME280;11052;43.338;25.502;2023-04-27T00:31:30;100349.22;;;10.19;100.00
2268;BME280;11052;43.338;25.502;2023-04-27T00:33:57;100345.13;;;10.10;100.00
2268;BME280;11052;43.338;25.502;2023-04-27T00:36:24;100348.41;;;10.17;100.00
2268;BME280;11052;43.338;25.502;2023-04-27T00:38:51;100358.16;;;10.07;100.00
2268;BME280;11052;43.338;25.502;2023-04-27T00:41:18;100359.31;;;9.97;100.00
2268;BME280;11052;43.338;25.502;2023-04-27T00:43:47;100365.50;;;9.92;100.00
2268;BME280;11052;43.338;25.502;2023-04-27T00:46:16;100360.38;;;9.89;100.00
2268;BME280;11052;43.338;25.502;2023-04-27T00:48:44;100366.53;;;9.84;100.00
2268;BME280;11052;43.338;25.502;2023-04-27T00:51:11;100358.81;;;9.83;100.00
2268;BME280;11052;43.338;25.502;2023-04-27T00:53:39;100367.69;;;9.73;100.00
2268;BME280;11052;43.338;25.502;2023-04-27T00:56:07;100368.16;;;9.89;100.00
2268;BME280;11052;43.338;25.502;2023-04-27T00:58:34;100369.91;;;9.88;100.00
2268;BME280;11052;43.338;25.502;2023-04-27T01:01:01;100372.22;;;9.99;100.00
2268;BME280;11052;43.338;25.502;2023-04-27T01:03:31;100374.75;;;10.00;100.00
2268;BME280;11052;43.338;25.502;2023-04-27T01:05:58;100380.66;;;10.05;100.00
2268;BME280;11052;43.338;25.502;2023-04-27T01:08:26;100387.75;;;9.99;100.00
2268;BME280;11052;43.338;25.502;2023-04-27T01:10:53;100390.34;;;9.99;100.00
2268;BME280;11052;43.338;25.502;2023-04-27T01:13:21;100392.16;;;9.95;100.00
2268;BME280;11052;43.338;25.502;2023-04-27T01:15:48;100399.19;;;9.90;100.00
2268;BME280;11052;43.338;25.502;2023-04-27T01:18:15;100402.44;;;9.98;100.00
2268;BME280;11052;43.338;25.502;2023-04-27T01:20:43;100400.63;;;10.02;100.00
2268;BME280;11052;43.338;25.502;2023-04-27T01:23:14;100404.63;;;10.13;100.00
2268;BME280;11052;43.338;25.502;2023-04-27T01:25:41;100407.94;;;10.18;100.00
2268;BME280;11052;43.338;25.502;2023-04-27T01:28:08;100411.47;;;10.16;100.00
2268;BME280;11052;43.338;25.502;2023-04-27T01:30:35;100425.22;;;10.20;100.00
2268;BME280;11052;43.338;25.502;2023-04-27T01:33:02;100417.41;;;10.21;100.00
2268;BME280;11052;43.338;25.502;2023-04-27T01:35:29;100417.38;;;10.23;100.00
2268;BME280;11052;43.338;25.502;2023-04-27T01:37:57;100422.59;;;10.21;100.00
2268;BME280;11052;43.338;25.502;2023-04-27T01:40:25;100419.09;;;10.22;100.00
2268;BME280;11052;43.338;25.502;2023-04-27T01:42:52;100420.09;;;10.16;100.00
2268;BME280;11052;43.338;25.502;2023-04-27T01:45:19;100418.38;;;10.15;100.00
2268;BME280;11052;43.338;25.502;2023-04-27T01:47:46;100420.81;;;10.23;100.00
2268;BME280;11052;43.338;25.502;2023-04-27T01:50:16;100422.47;;;10.26;100.00
2268;BME280;11052;43.338;25.502;2023-04-27T01:52:43;100425.06;;;10.26;100.00
2268;BME280;11052;43.338;25.502;2023-04-27T01:55:10;100423.19;;;10.31;100.00
2268;BME280;11052;43.338;25.502;2023-04-27T01:57:39;100430.00;;;10.35;100.00
2268;BME280;11052;43.338;25.502;2023-04-27T02:00:07;100432.72;;;10.30;100.00
2268;BME280;11052;43.338;25.502;2023-04-27T02:02:35;100434.53;;;10.27;100.00
2268;BME280;11052;43.338;25.502;2023-04-27T02:05:02;100438.16;;;10.20;100.00
2268;BME280;11052;43.338;25.502;2023-04-27T02:07:29;100429.69;;;10.13;100.00
2268;BME280;11052;43.338;25.502;2023-04-27T02:09:56;100434.25;;;10.03;100.00
2268;BME280;11052;43.338;25.502;2023-04-27T02:12:23;100434.50;;;9.93;100.00
2268;BME280;11052;43.338;25.502;2023-04-27T02:14:52;100436.88;;;10.02;100.00
2268;BME280;11052;43.338;25.502;2023-04-27T02:17:19;100433.16;;;10.12;100.00
2268;BME280;11052;43.338;25.502;2023-04-27T02:19:46;100444.28;;;10.15;100.00
2268;BME280;11052;43.338;25.502;2023-04-27T02:22:13;100444.28;;;10.15;100.00
2268;BME280;11052;43.338;25.502;2023-04-27T02:24:40;100447.69;;;10.17;100.00
2268;BME280;11052;43.338;25.502;2023-04-27T02:27:07;100451.13;;;10.18;100.00
2268;BME280;11052;43.338;25.502;2023-04-27T02:29:34;100449.31;;;10.23;100.00
2268;BME280;11052;43.338;25.502;2023-04-27T02:32:05;100452.72;;;10.25;100.00
2268;BME280;11052;43.338;25.502;2023-04-27T02:34:32;100451.03;;;10.23;100.00
2268;BME280;11052;43.338;25.502;2023-04-27T02:36:59;100451.94;;;10.22;100.00
2268;BME280;11052;43.338;25.502;2023-04-27T02:39:26;100449.38;;;10.18;100.00
2268;BME280;11052;43.338;25.502;2023-04-27T02:41:53;100459.75;;;10.18;100.00
2268;BME280;11052;43.338;25.502;2023-04-27T02:44:20;100448.53;;;10.20;100.00
2268;BME280;11052;43.338;25.502;2023-04-27T02:46:47;100459.75;;;10.20;100.00
2268;BME280;11052;43.338;25.502;2023-04-27T02:49:16;100459.66;;;10.23;100.00
2268;BME280;11052;43.338;25.502;2023-04-27T02:51:43;100450.41;;;10.13;100.00
2268;BME280;11052;43.338;25.502;2023-04-27T02:54:10;100459.78;;;10.17;100.00
2268;BME280;11052;43.338;25.502;2023-04-27T02:56:37;100455.41;;;10.21;100.00
2268;BME280;11052;43.338;25.502;2023-04-27T02:59:04;100459.84;;;10.15;100.00
2268;BME280;11052;43.338;25.502;2023-04-27T03:01:31;100464.25;;;10.12;100.00
2268;BME280;11052;43.338;25.502;2023-04-27T03:03:58;100464.44;;;10.04;100.00
2268;BME280;11052;43.338;25.502;2023-04-27T03:06:27;100458.63;;;9.95;100.00
2268;BME280;11052;43.338;25.502;2023-04-27T03:08:54;100467.09;;;10.01;100.00
2268;BME280;11052;43.338;25.502;2023-04-27T03:11:21;100464.53;;;10.00;100.00
2268;BME280;11052;43.338;25.502;2023-04-27T03:13:48;100473.06;;;10.05;100.00
2268;BME280;11052;43.338;25.502;2023-04-27T03:16:15;100480.13;;;9.98;100.00
2268;BME280;11052;43.338;25.502;2023-04-27T03:18:42;100478.41;;;9.97;100.00
2268;BME280;11052;43.338;25.502;2023-04-27T03:21:10;100480.19;;;9.95;100.00
2268;BME280;11052;43.338;25.502;2023-04-27T03:23:39;100474.16;;;9.95;100.00
2268;BME280;11052;43.338;25.502;2023-04-27T03:26:07;100479.38;;;9.93;100.00
2268;BME280;11052;43.338;25.502;2023-04-27T03:28:34;100482.91;;;9.91;100.00
2268;BME280;11052;43.338;25.502;2023-04-27T03:31:04;100479.38;;;9.93;100.00
2268;BME280;11052;43.338;25.502;2023-04-27T03:33:31;100481.09;;;9.94;100.00
2268;BME280;11052;43.338;25.502;2023-04-27T03:35:59;100485.41;;;9.94;100.00
2268;BME280;11052;43.338;25.502;2023-04-27T03:38:26;100484.00;;;9.80;100.00
2268;BME280;11052;43.338;25.502;2023-04-27T03:40:55;100493.78;;;9.68;100.00
2268;BME280;11052;43.338;25.502;2023-04-27T03:43:22;100492.03;;;9.70;100.00
2268;BME280;11052;43.338;25.502;2023-04-27T03:45:50;100489.41;;;9.71;100.00
2268;BME280;11052;43.338;25.502;2023-04-27T03:48:17;100500.53;;;9.75;100.00
2268;BME280;11052;43.338;25.502;2023-04-27T03:50:45;100496.69;;;9.54;100.00
2268;BME280;11052;43.338;25.502;2023-04-27T03:53:12;100499.25;;;9.56;100.00
2268;BME280;11052;43.338;25.502;2023-04-27T03:55:41;100500.84;;;9.61;100.00
2268;BME280;11052;43.338;25.502;2023-04-27T03:58:10;100504.16;;;9.68;100.00
2268;BME280;11052;43.338;25.502;2023-04-27T04:00:37;100508.41;;;9.70;100.00
2268;BME280;11052;43.338;25.502;2023-04-27T04:03:05;100504.91;;;9.73;100.00
2268;BME280;11052;43.338;25.502;2023-04-27T04:05:32;100510.97;;;9.72;100.00
2268;BME280;11052;43.338;25.502;2023-04-27T04:08:00;100507.69;;;9.64;100.00
2268;BME280;11052;43.338;25.502;2023-04-27T04:10:27;100507.69;;;9.64;100.00
2268;BME280;11052;43.338;25.502;2023-04-27T04:12:54;100516.66;;;9.50;100.00
2268;BME280;11052;43.338;25.502;2023-04-27T04:15:22;100512.19;;;9.56;100.00
2268;BME280;11052;43.338;25.502;2023-04-27T04:17:50;100516.66;;;9.50;100.00
2268;BME280;11052;43.338;25.502;2023-04-27T04:20:17;100523.38;;;9.58;100.00
2268;BME280;11052;43.338;25.502;2023-04-27T04:22:44;100518.97;;;9.61;100.00
2268;BME280;11052;43.338;25.502;2023-04-27T04:25:11;100525.22;;;9.52;100.00
2268;BME280;11052;43.338;25.502;2023-04-27T04:27:39;100526.34;;;9.41;100.00
2268;BME280;11052;43.338;25.502;2023-04-27T04:30:07;100525.28;;;9.49;100.00
2268;BME280;11052;43.338;25.502;2023-04-27T04:32:36;100526.19;;;9.48;100.00
2268;BME280;11052;43.338;25.502;2023-04-27T04:35:04;100526.22;;;9.47;100.00
2268;BME280;11052;43.338;25.502;2023-04-27T04:37:32;100530.41;;;9.52;100.00
2268;BME280;11052;43.338;25.502;2023-04-27T04:40:03;100526.69;;;9.63;100.00
2268;BME280;11052;43.338;25.502;2023-04-27T04:42:33;100530.78;;;9.73;100.00
2268;BME280;11052;43.338;25.502;2023-04-27T04:45:01;100528.16;;;9.74;100.00
2268;BME280;11052;43.338;25.502;2023-04-27T04:47:29;100534.81;;;9.84;100.00
2268;BME280;11052;43.338;25.502;2023-04-27T04:50:00;100534.78;;;9.86;100.00
2268;BME280;11052;43.338;25.502;2023-04-27T04:52:27;100532.31;;;9.81;100.00
2268;BME280;11052;43.338;25.502;2023-04-27T04:54:54;100541.09;;;9.74;100.00
2268;BME280;11052;43.338;25.502;2023-04-27T04:57:21;100544.38;;;9.82;100.00
2268;BME280;11052;43.338;25.502;2023-04-27T04:59:48;100544.38;;;9.82;100.00
2268;BME280;11052;43.338;25.502;2023-04-27T05:02:15;100544.91;;;9.97;100.00
2268;BME280;11052;43.338;25.502;2023-04-27T05:04:42;100547.75;;;9.86;100.00
2268;BME280;11052;43.338;25.502;2023-04-27T05:07:11;100555.38;;;9.92;100.00
2268;BME280;11052;43.338;25.502;2023-04-27T05:09:38;100551.88;;;9.93;100.00
2268;BME280;11052;43.338;25.502;2023-04-27T05:12:06;100561.25;;;9.99;100.00
2268;BME280;11052;43.338;25.502;2023-04-27T05:14:33;100556.09;;;9.97;100.00
2268;BME280;11052;43.338;25.502;2023-04-27T05:17:00;100560.34;;;10.01;100.00
2268;BME280;11052;43.338;25.502;2023-04-27T05:19:28;100563.53;;;10.12;100.00
2268;BME280;11052;43.338;25.502;2023-04-27T05:21:56;100559.16;;;10.14;100.00
2268;BME280;11052;43.338;25.502;2023-04-27T05:24:25;100563.59;;;10.09;100.00
2268;BME280;11052;43.338;25.502;2023-04-27T05:26:52;100559.03;;;10.19;100.00
2268;BME280;11052;43.338;25.502;2023-04-27T05:29:20;100560.50;;;10.31;100.00
2268;BME280;11052;43.338;25.502;2023-04-27T05:31:47;100568.06;;;10.40;100.00
2268;BME280;11052;43.338;25.502;2023-04-27T05:34:14;100572.09;;;10.50;100.00
2268;BME280;11052;43.338;25.502;2023-04-27T05:36:41;100575.50;;;10.52;100.00
2268;BME280;11052;43.338;25.502;2023-04-27T05:39:09;100568.47;;;10.57;100.00
2268;BME280;11052;43.338;25.502;2023-04-27T05:41:38;100571.88;;;10.59;100.00
2268;BME280;11052;43.338;25.502;2023-04-27T05:44:05;100572.53;;;10.67;100.00
2268;BME280;11052;43.338;25.502;2023-04-27T05:46:32;100574.94;;;10.73;100.00
2268;BME280;11052;43.338;25.502;2023-04-27T05:49:00;100581.97;;;10.70;100.00
2268;BME280;11052;43.338;25.502;2023-04-27T05:51:27;100590.59;;;10.70;100.00
2268;BME280;11052;43.338;25.502;2023-04-27T05:53:54;100584.44;;;10.74;100.00
2268;BME280;11052;43.338;25.502;2023-04-27T05:56:21;100596.44;;;10.78;100.00
2268;BME280;11052;43.338;25.502;2023-04-27T05:58:50;100591.88;;;10.87;100.00
2268;BME280;11052;43.338;25.502;2023-04-27T06:01:17;100598.16;;;10.78;100.00
2268;BME280;11052;43.338;25.502;2023-04-27T06:03:44;100599.19;;;10.72;100.00
2268;BME280;11052;43.338;25.502;2023-04-27T06:06:11;100599.22;;;10.71;100.00
2268;BME280;11052;43.338;25.502;2023-04-27T06:08:38;100593.84;;;10.78;100.00
2268;BME280;11052;43.338;25.502;2023-04-27T06:11:05;100598.41;;;10.69;100.00
2268;BME280;11052;43.338;25.502;2023-04-27T06:13:34;100602.00;;;10.63;100.00
2268;BME280;11052;43.338;25.502;2023-04-27T06:16:03;100594.09;;;10.68;100.00
2268;BME280;11052;43.338;25.502;2023-04-27T06:18:30;100592.38;;;10.68;100.00
2268;BME280;11052;43.338;25.502;2023-04-27T06:20:58;100598.56;;;10.63;100.00
2268;BME280;11052;43.338;25.502;2023-04-27T06:23:26;100602.16;;;10.57;100.00
2268;BME280;11052;43.338;25.502;2023-04-27T06:25:53;100597.78;;;10.59;100.00
2268;BME280;11052;43.338;25.502;2023-04-27T06:28:20;100599.44;;;10.62;100.00
2268;BME280;11052;43.338;25.502;2023-04-27T06:30:47;100591.31;;;10.75;100.00
2268;BME280;11052;43.338;25.502;2023-04-27T06:33:15;100603.56;;;10.70;100.00
2268;BME280;11052;43.338;25.502;2023-04-27T06:35:43;100600.81;;;10.76;100.00
2268;BME280;11052;43.338;25.502;2023-04-27T06:38:10;100596.50;;;10.75;100.00
2268;BME280;11052;43.338;25.502;2023-04-27T06:40:38;100601.84;;;10.69;100.00
2268;BME280;11052;43.338;25.502;2023-04-27T06:43:05;100594.81;;;10.74;100.00
2268;BME280;11052;43.338;25.502;2023-04-27T06:45:32;100599.19;;;10.72;100.00
2268;BME280;11052;43.338;25.502;2023-04-27T06:47:59;100606.75;;;10.80;100.00
2268;BME280;11052;43.338;25.502;2023-04-27T06:50:27;100608.44;;;10.82;100.00
2268;BME280;11052;43.338;25.502;2023-04-27T06:52:55;100604.78;;;10.90;100.00
2268;BME280;11052;43.338;25.502;2023-04-27T06:55:22;100606.25;;;11.00;100.00
2268;BME280;11052;43.338;25.502;2023-04-27T06:57:49;100605.19;;;11.07;100.00
2268;BME280;11052;43.338;25.502;2023-04-27T07:00:17;100607.78;;;11.07;100.00
2268;BME280;11052;43.338;25.502;2023-04-27T07:02:44;100616.41;;;11.07;100.00
2268;BME280;11052;43.338;25.502;2023-04-27T07:05:11;100613.72;;;11.10;100.00
2268;BME280;11052;43.338;25.502;2023-04-27T07:07:40;100617.13;;;11.12;100.00
2268;BME280;11052;43.338;25.502;2023-04-27T07:10:08;100621.47;;;11.12;100.00
2268;BME280;11052;43.338;25.502;2023-04-27T07:12:35;100616.56;;;11.01;100.00
2268;BME280;11052;43.338;25.502;2023-04-27T07:15:02;100616.56;;;11.01;100.00
2268;BME280;11052;43.338;25.502;2023-04-27T07:17:31;100618.41;;;10.98;100.00
2268;BME280;11052;43.338;25.502;2023-04-27T07:19:58;100616.41;;;11.07;100.00
2268;BME280;11052;43.338;25.502;2023-04-27T07:22:25;100627.06;;;10.97;100.00
2268;BME280;11052;43.338;25.502;2023-04-27T07:24:54;100614.88;;;11.00;100.00
2268;BME280;11052;43.338;25.502;2023-04-27T07:27:22;100613.72;;;11.10;100.00
2268;BME280;11052;43.338;25.502;2023-04-27T07:29:51;100618.88;;;11.12;100.00
2268;BME280;11052;43.338;25.502;2023-04-27T07:32:18;100626.59;;;11.15;100.00
2268;BME280;11052;43.338;25.502;2023-04-27T07:34:45;100625.72;;;11.14;100.00
2268;BME280;11052;43.338;25.502;2023-04-27T07:37:13;100620.78;;;11.05;100.00
2268;BME280;11052;43.338;25.502;2023-04-27T07:39:40;100623.19;;;11.13;100.00
2268;BME280;11052;43.338;25.502;2023-04-27T07:42:09;100624.72;;;11.20;100.00
2268;BME280;11052;43.338;25.502;2023-04-27T07:44:36;100624.44;;;11.29;100.00
2268;BME280;11052;43.338;25.502;2023-04-27T07:47:03;100627.91;;;11.28;100.00
2268;BME280;11052;43.338;25.502;2023-04-27T07:49:30;100628.28;;;11.16;100.00
2268;BME280;11052;43.338;25.502;2023-04-27T07:51:58;100628.50;;;11.08;100.00
2268;BME280;11052;43.338;25.502;2023-04-27T07:54:25;100623.25;;;11.10;100.00
2268;BME280;11052;43.338;25.502;2023-04-27T07:56:53;100627.22;;;11.23;100.00
2268;BME280;11052;43.338;25.502;2023-04-27T07:59:22;100625.28;;;11.30;100.00
2268;BME280;11052;43.338;25.502;2023-04-27T08:01:49;100629.94;;;11.19;100.00
2268;BME280;11052;43.338;25.502;2023-04-27T08:04:16;100637.78;;;11.17;100.00
2268;BME280;11052;43.338;25.502;2023-04-27T08:06:43;100631.31;;;11.30;100.00
2268;BME280;11052;43.338;25.502;2023-04-27T08:09:10;100639.47;;;11.18;100.00
2268;BME280;11052;43.338;25.502;2023-04-27T08:11:37;100641.31;;;10.80;100.00
2268;BME280;11052;43.338;25.502;2023-04-27T08:14:05;100641.31;;;10.80;100.00
2268;BME280;11052;43.338;25.502;2023-04-27T08:16:39;100636.94;;;10.82;100.00
2268;BME280;11052;43.338;25.502;2023-04-27T08:19:06;100648.97;;;10.85;100.00
2268;BME280;11052;43.338;25.502;2023-04-27T08:21:34;100646.34;;;10.87;100.00
2268;BME280;11052;43.338;25.502;2023-04-27T08:24:01;100646.34;;;10.87;100.00
2268;BME280;11052;43.338;25.502;2023-04-27T08:26:28;100643.09;;;10.78;100.00
2268;BME280;11052;43.338;25.502;2023-04-27T08:28:55;100640.78;;;10.68;100.00
2268;BME280;11052;43.338;25.502;2023-04-27T08:31:25;100646.88;;;10.65;100.00
2268;BME280;11052;43.338;25.502;2023-04-27T08:33:54;100645.44;;;10.54;100.00
2268;BME280;11052;43.338;25.502;2023-04-27T08:36:23;100645.03;;;10.36;100.00
2268;BME280;11052;43.338;25.502;2023-04-27T08:38:50;100642.22;;;10.44;100.00
2268;BME280;11052;43.338;25.502;2023-04-27T08:41:18;100643.44;;;10.31;100.00
2268;BME280;11052;43.338;25.502;2023-04-27T08:43:47;100647.72;;;10.32;100.00
2268;BME280;11052;43.338;25.502;2023-04-27T08:46:17;100647.03;;;10.25;100.00
2268;BME280;11052;43.338;25.502;2023-04-27T08:48:45;100644.56;;;10.17;100.00
2268;BME280;11052;43.338;25.502;2023-04-27T08:51:15;100645.50;;;10.15;100.00
2268;BME280;11052;43.338;25.502;2023-04-27T08:53:47;100642.16;;;10.10;100.00
2268;BME280;11052;43.338;25.502;2023-04-27T08:56:15;100641.16;;;10.15;100.00
2268;BME280;11052;43.338;25.502;2023-04-27T08:58:42;100642.47;;;10.35;100.00
2268;BME280;11052;43.338;25.502;2023-04-27T09:01:09;100644.59;;;10.53;100.00
2268;BME280;11052;43.338;25.502;2023-04-27T09:03:36;100632.25;;;10.63;100.00
2268;BME280;11052;43.338;25.502;2023-04-27T09:06:04;100641.59;;;10.70;100.00
2268;BME280;11052;43.338;25.502;2023-04-27T09:08:43;100633.97;;;10.64;100.00
2268;BME280;11052;43.338;25.502;2023-04-27T09:11:11;100631.72;;;10.84;100.00
2268;BME280;11052;43.338;25.502;2023-04-27T09:13:41;100636.22;;;10.77;100.00
2268;BME280;11052;43.338;25.502;2023-04-27T09:16:10;100626.94;;;10.69;100.00
2268;BME280;11052;43.338;25.502;2023-04-27T09:18:40;100621.06;;;10.95;100.00
2268;BME280;11052;43.338;25.502;2023-04-27T09:21:08;100622.50;;;11.06;100.00
2268;BME280;11052;43.338;25.502;2023-04-27T09:23:38;100622.41;;;11.09;100.00
2268;BME280;11052;43.338;25.502;2023-04-27T09:26:07;100616.31;;;11.10;100.00
2268;BME280;11052;43.338;25.502;2023-04-27T09:28:38;100621.31;;;11.18;100.00
2268;BME280;11052;43.338;25.502;2023-04-27T09:31:06;100618.63;;;11.21;100.00
2268;BME280;11052;43.338;25.502;2023-04-27T09:33:35;100621.75;;;11.01;100.00
2268;BME280;11052;43.338;25.502;2023-04-27T09:36:04;100623.00;;;11.19;100.00
2268;BME280;11052;43.338;25.502;2023-04-27T09:38:32;100618.88;;;11.12;100.00
2268;BME280;11052;43.338;25.502;2023-04-27T09:40:59;100621.59;;;11.07;100.00
2268;BME280;11052;43.338;25.502;2023-04-27T09:43:28;100619.66;;;11.15;100.00
2268;BME280;11052;43.338;25.502;2023-04-27T09:45:56;100620.28;;;11.24;100.00
2268;BME280;11052;43.338;25.502;2023-04-27T09:48:24;100617.00;;;11.17;100.00
2268;BME280;11052;43.338;25.502;2023-04-27T09:50:52;100608.47;;;11.43;100.00
2268;BME280;11052;43.338;25.502;2023-04-27T09:53:21;100610.31;;;11.69;100.00
2268;BME280;11052;43.338;25.502;2023-04-27T09:55:57;100598.84;;;11.76;100.00
2268;BME280;11052;43.338;25.502;2023-04-27T09:59:01;100599.41;;;11.87;100.00
2268;BME280;11052;43.338;25.502;2023-04-27T10:01:36;100594.72;;;12.25;100.00
2268;BME280;11052;43.338;25.502;2023-04-27T10:04:15;100588.06;;;12.69;100.00
2268;BME280;11052;43.338;25.502;2023-04-27T10:06:58;100587.38;;;12.89;100.00
2268;BME280;11052;43.338;25.502;2023-04-27T10:09:26;100585.28;;;13.23;100.00
2268;BME280;11052;43.338;25.502;2023-04-27T10:11:55;100579.41;;;13.41;100.00
2268;BME280;11052;43.338;25.502;2023-04-27T10:14:23;100579.75;;;13.32;100.00
2268;BME280;11052;43.338;25.502;2023-04-27T10:16:52;100575.94;;;13.64;100.00
2268;BME280;11052;43.338;25.502;2023-04-27T10:19:19;100577.00;;;13.82;100.00
2268;BME280;11052;43.338;25.502;2023-04-27T10:21:52;100574.56;;;13.77;100.00
2268;BME280;11052;43.338;25.502;2023-04-27T10:24:31;100580.66;;;13.55;100.00
2268;BME280;11052;43.338;25.502;2023-04-27T10:27:01;100577.19;;;13.54;100.00
2268;BME280;11052;43.338;25.502;2023-04-27T10:29:39;100573.84;;;13.51;100.00
2268;BME280;11052;43.338;25.502;2023-04-27T10:32:10;100564.91;;;14.01;100.00
2268;BME280;11052;43.338;25.502;2023-04-27T10:34:37;100575.13;;;14.28;100.00
2268;BME280;11052;43.338;25.502;2023-04-27T10:37:07;100570.09;;;14.23;100.00
2268;BME280;11052;43.338;25.502;2023-04-27T10:39:36;100578.78;;;14.46;100.00
2268;BME280;11052;43.338;25.502;2023-04-27T10:42:05;100573.44;;;14.49;100.00
2268;BME280;11052;43.338;25.502;2023-04-27T10:44:34;100568.00;;;14.11;100.00
2268;BME280;11052;43.338;25.502;2023-04-27T10:47:12;100568.91;;;13.88;100.00
2268;BME280;11052;43.338;25.502;2023-04-27T10:49:39;100566.47;;;13.62;100.00
2268;BME280;11052;43.338;25.502;2023-04-27T10:52:07;100570.19;;;13.78;100.00
2268;BME280;11052;43.338;25.502;2023-04-27T10:54:34;100560.06;;;13.70;100.00
2268;BME280;11052;43.338;25.502;2023-04-27T10:57:03;100560.84;;;14.16;100.00
2268;BME280;11052;43.338;25.502;2023-04-27T10:59:31;100559.19;;;14.14;100.00
2268;BME280;11052;43.338;25.502;2023-04-27T11:01:58;100559.72;;;14.22;100.00
2268;BME280;11052;43.338;25.502;2023-04-27T11:04:36;100553.97;;;14.35;100.00
2268;BME280;11052;43.338;25.502;2023-04-27T11:07:05;100565.03;;;14.40;100.00
2268;BME280;11052;43.338;25.502;2023-04-27T11:09:34;100563.13;;;14.46;100.00
2268;BME280;11052;43.338;25.502;2023-04-27T11:12:05;100570.16;;;14.84;100.00
2268;BME280;11052;43.338;25.502;2023-04-27T11:14:33;100562.06;;;15.29;100.00
2268;BME280;11052;43.338;25.502;2023-04-27T11:17:01;100553.81;;;15.38;100.00
2268;BME280;11052;43.338;25.502;2023-04-27T11:19:29;100564.13;;;15.02;100.00
2268;BME280;11052;43.338;25.502;2023-04-27T11:22:04;100558.50;;;15.12;100.00
2268;BME280;11052;43.338;25.502;2023-04-27T11:24:31;100560.78;;;15.38;100.00
2268;BME280;11052;43.338;25.502;2023-04-27T11:26:59;100568.13;;;15.67;100.00
2268;BME280;11052;43.338;25.502;2023-04-27T11:29:36;100569.00;;;16.04;100.00
2268;BME280;11052;43.338;25.502;2023-04-27T11:32:04;100568.56;;;15.77;100.00
2268;BME280;11052;43.338;25.502;2023-04-27T11:34:32;100564.94;;;15.80;100.00
2268;BME280;11052;43.338;25.502;2023-04-27T11:37:05;100559.09;;;15.74;100.00
2268;BME280;11052;43.338;25.502;2023-04-27T11:39:34;100570.09;;;15.81;100.00
2268;BME280;11052;43.338;25.502;2023-04-27T11:42:15;100567.09;;;16.08;100.00
2268;BME280;11052;43.338;25.502;2023-04-27T11:44:50;100557.22;;;15.95;100.00
2268;BME280;11052;43.338;25.502;2023-04-27T11:47:17;100556.72;;;16.06;100.00
2268;BME280;11052;43.338;25.502;2023-04-27T11:49:46;100562.44;;;15.95;100.00
2268;BME280;11052;43.338;25.502;2023-04-27T11:52:15;100559.69;;;15.98;100.00
2268;BME280;11052;43.338;25.502;2023-04-27T11:54:49;100558.81;;;15.81;100.00
2268;BME280;11052;43.338;25.502;2023-04-27T11:57:17;100558.94;;;15.78;100.00
2268;BME280;11052;43.338;25.502;2023-04-27T11:59:45;100554.94;;;16.06;100.00
2268;BME280;11052;43.338;25.502;2023-04-27T12:02:12;100553.22;;;16.42;100.00
2268;BME280;11052;43.338;25.502;2023-04-27T12:04:39;100547.97;;;16.42;100.00
2268;BME280;11052;43.338;25.502;2023-04-27T12:07:06;100544.34;;;16.44;100.00
2268;BME280;11052;43.338;25.502;2023-04-27T12:09:35;100550.94;;;16.17;100.00
2268;BME280;11052;43.338;25.502;2023-04-27T12:12:02;100557.47;;;16.08;100.00
2268;BME280;11052;43.338;25.502;2023-04-27T12:14:29;100550.06;;;15.99;100.00
2268;BME280;11052;43.338;25.502;2023-04-27T12:16:56;100545.06;;;15.94;100.00
2268;BME280;11052;43.338;25.502;2023-04-27T12:19:23;100546.44;;;15.84;100.00
2268;BME280;11052;43.338;25.502;2023-04-27T12:21:51;100551.16;;;15.95;100.00
2268;BME280;11052;43.338;25.502;2023-04-27T12:24:19;100540.16;;;16.05;100.00
2268;BME280;11052;43.338;25.502;2023-04-27T12:26:47;100544.47;;;16.06;100.00
2268;BME280;11052;43.338;25.502;2023-04-27T12:29:16;100531.88;;;16.15;100.00
2268;BME280;11052;43.338;25.502;2023-04-27T12:31:43;100530.81;;;16.19;100.00
2268;BME280;11052;43.338;25.502;2023-04-27T12:34:10;100528.03;;;16.22;100.00
2268;BME280;11052;43.338;25.502;2023-04-27T12:36:37;100525.72;;;16.33;100.00
2268;BME280;11052;43.338;25.502;2023-04-27T12:39:14;100524.38;;;16.59;100.00
2268;BME280;11052;43.338;25.502;2023-04-27T12:41:42;100532.22;;;16.59;100.00
2268;BME280;11052;43.338;25.502;2023-04-27T12:44:10;100530.88;;;16.69;100.00
2268;BME280;11052;43.338;25.502;2023-04-27T12:46:38;100527.03;;;16.42;100.00
2268;BME280;11052;43.338;25.502;2023-04-27T12:49:05;100524.03;;;16.32;100.00